sensor_id;sensor_type;location;lat;lon;timestamp;P1;durP1;ratioP1;P2;durP2;ratioP2
13114;SDS011;6623;52.120;8.660;2023-07-31T00:01:59;1.53;;;0.90;;
13114;SDS011;6623;52.120;8.660;2023-07-31T00:04:24;1.57;;;0.83;;
13114;SDS011;6623;52.120;8.660;2023-07-31T00:06:53;0.80;;;0.70;;
13114;SDS011;6623;52.120;8.660;2023-07-31T00:09:18;1.33;;;1.07;;
13114;SDS011;6623;52.120;8.660;2023-07-31T00:11:44;1.90;;;1.07;;
13114;SDS011;6623;52.120;8.660;2023-07-31T00:14:09;1.80;;;1.20;;
13114;SDS011;6623;52.120;8.660;2023-07-31T00:16:35;1.53;;;0.90;;
13114;SDS011;6623;52.120;8.660;2023-07-31T00:19:00;2.07;;;1.17;;
13114;SDS011;6623;52.120;8.660;2023-07-31T00:21:26;1.90;;;0.90;;
13114;SDS011;6623;52.120;8.660;2023-07-31T00:23:51;1.93;;;1.00;;
13114;SDS011;6623;52.120;8.660;2023-07-31T00:26:17;2.07;;;1.10;;
13114;SDS011;6623;52.120;8.660;2023-07-31T00:28:42;1.40;;;1.03;;
13114;SDS011;6623;52.120;8.660;2023-07-31T00:31:08;1.20;;;0.90;;
13114;SDS011;6623;52.120;8.660;2023-07-31T00:33:34;1.93;;;1.20;;
13114;SDS011;6623;52.120;8.660;2023-07-31T00:36:00;1.77;;;1.10;;
13114;SDS011;6623;52.120;8.660;2023-07-31T00:38:26;1.03;;;0.93;;
13114;SDS011;6623;52.120;8.660;2023-07-31T00:40:51;1.30;;;0.90;;
13114;SDS011;6623;52.120;8.660;2023-07-31T00:43:17;1.30;;;0.83;;
13114;SDS011;6623;52.120;8.660;2023-07-31T00:45:43;1.20;;;0.90;;
13114;SDS011;6623;52.120;8.660;2023-07-31T00:48:09;1.40;;;0.90;;
13114;SDS011;6623;52.120;8.660;2023-07-31T00:50:34;1.10;;;0.80;;
13114;SDS011;6623;52.120;8.660;2023-07-31T00:53:00;1.93;;;1.00;;
13114;SDS011;6623;52.120;8.660;2023-07-31T00:55:26;1.30;;;0.87;;
13114;SDS011;6623;52.120;8.660;2023-07-31T00:57:52;2.27;;;0.80;;
13114;SDS011;6623;52.120;8.660;2023-07-31T01:00:20;1.47;;;0.93;;
13114;SDS011;6623;52.120;8.660;2023-07-31T01:02:46;1.20;;;0.90;;
13114;SDS011;6623;52.120;8.660;2023-07-31T01:05:13;1.47;;;0.80;;
13114;SDS011;6623;52.120;8.660;2023-07-31T01:13:01;1.13;;;0.80;;
13114;SDS011;6623;52.120;8.660;2023-07-31T01:15:28;1.20;;;0.90;;
13114;SDS011;6623;52.120;8.660;2023-07-31T01:17:54;2.03;;;0.87;;
13114;SDS011;6623;52.120;8.660;2023-07-31T01:20:23;1.00;;;0.90;;
13114;SDS011;6623;52.120;8.660;2023-07-31T01:28:09;0.70;;;0.60;;
13114;SDS011;6623;52.120;8.660;2023-07-31T01:30:41;1.00;;;0.70;;
13114;SDS011;6623;52.120;8.660;2023-07-31T01:33:11;0.93;;;0.70;;
13114;SDS011;6623;52.120;8.660;2023-07-31T01:35:37;1.20;;;0.80;;
13114;SDS011;6623;52.120;8.660;2023-07-31T01:38:04;1.00;;;0.73;;
13114;SDS011;6623;52.120;8.660;2023-07-31T01:40:30;0.97;;;0.60;;
13114;SDS011;6623;52.120;8.660;2023-07-31T01:42:55;1.03;;;0.70;;
13114;SDS011;6623;52.120;8.660;2023-07-31T01:45:21;0.90;;;0.70;;
13114;SDS011;6623;52.120;8.660;2023-07-31T01:47:46;1.30;;;0.90;;
13114;SDS011;6623;52.120;8.660;2023-07-31T01:50:12;1.27;;;0.70;;
13114;SDS011;6623;52.120;8.660;2023-07-31T01:52:37;1.30;;;0.90;;
13114;SDS011;6623;52.120;8.660;2023-07-31T01:55:03;1.10;;;0.70;;
13114;SDS011;6623;52.120;8.660;2023-07-31T01:57:29;1.17;;;0.73;;
13114;SDS011;6623;52.120;8.660;2023-07-31T01:59:54;0.60;;;0.50;;
13114;SDS011;6623;52.120;8.660;2023-07-31T02:02:21;1.63;;;0.70;;
13114;SDS011;6623;52.120;8.660;2023-07-31T02:04:48;1.10;;;0.73;;
13114;SDS011;6623;52.120;8.660;2023-07-31T02:07:14;0.90;;;0.70;;
13114;SDS011;6623;52.120;8.660;2023-07-31T02:09:39;1.10;;;0.80;;
13114;SDS011;6623;52.120;8.660;2023-07-31T02:12:05;1.20;;;0.70;;
13114;SDS011;6623;52.120;8.660;2023-07-31T02:14:33;1.20;;;0.83;;
13114;SDS011;6623;52.120;8.660;2023-07-31T02:16:59;1.43;;;0.70;;
13114;SDS011;6623;52.120;8.660;2023-07-31T02:19:24;1.30;;;0.80;;
13114;SDS011;6623;52.120;8.660;2023-07-31T02:21:50;1.03;;;0.80;;
13114;SDS011;6623;52.120;8.660;2023-07-31T02:24:15;0.70;;;0.70;;
13114;SDS011;6623;52.120;8.660;2023-07-31T02:26:41;0.90;;;0.80;;
13114;SDS011;6623;52.120;8.660;2023-07-31T02:29:07;0.80;;;0.80;;
13114;SDS011;6623;52.120;8.660;2023-07-31T02:31:33;0.90;;;0.80;;
13114;SDS011;6623;52.120;8.660;2023-07-31T02:33:58;0.90;;;0.63;;
13114;SDS011;6623;52.120;8.660;2023-07-31T02:36:24;0.60;;;0.57;;
13114;SDS011;6623;52.120;8.660;2023-07-31T02:38:49;1.00;;;0.90;;
13114;SDS011;6623;52.120;8.660;2023-07-31T02:41:15;1.00;;;0.90;;
13114;SDS011;6623;52.120;8.660;2023-07-31T02:43:40;1.37;;;0.60;;
13114;SDS011;6623;52.120;8.660;2023-07-31T02:46:06;1.00;;;0.90;;
13114;SDS011;6623;52.120;8.660;2023-07-31T02:48:31;1.13;;;0.80;;
13114;SDS011;6623;52.120;8.660;2023-07-31T02:50:57;0.80;;;0.77;;
13114;SDS011;6623;52.120;8.660;2023-07-31T02:53:23;0.90;;;0.70;;
13114;SDS011;6623;52.120;8.660;2023-07-31T02:55:48;0.83;;;0.77;;
13114;SDS011;6623;52.120;8.660;2023-07-31T02:58:14;0.90;;;0.80;;
13114;SDS011;6623;52.120;8.660;2023-07-31T03:00:43;0.83;;;0.80;;
13114;SDS011;6623;52.120;8.660;2023-07-31T03:03:09;1.10;;;0.77;;
13114;SDS011;6623;52.120;8.660;2023-07-31T03:05:34;0.80;;;0.80;;
13114;SDS011;6623;52.120;8.660;2023-07-31T03:08:00;1.00;;;0.90;;
13114;SDS011;6623;52.120;8.660;2023-07-31T03:10:26;1.37;;;0.80;;
13114;SDS011;6623;52.120;8.660;2023-07-31T03:12:52;0.90;;;0.80;;
13114;SDS011;6623;52.120;8.660;2023-07-31T03:15:17;1.93;;;0.93;;
13114;SDS011;6623;52.120;8.660;2023-07-31T03:17:43;1.73;;;1.00;;
13114;SDS011;6623;52.120;8.660;2023-07-31T03:20:08;1.00;;;0.87;;
13114;SDS011;6623;52.120;8.660;2023-07-31T03:22:34;0.70;;;0.70;;
13114;SDS011;6623;52.120;8.660;2023-07-31T03:25:01;0.70;;;0.70;;
13114;SDS011;6623;52.120;8.660;2023-07-31T03:27:27;1.00;;;0.90;;
13114;SDS011;6623;52.120;8.660;2023-07-31T03:29:53;0.80;;;0.80;;
13114;SDS011;6623;52.120;8.660;2023-07-31T03:32:18;0.93;;;0.80;;
13114;SDS011;6623;52.120;8.660;2023-07-31T03:34:44;1.00;;;0.90;;
13114;SDS011;6623;52.120;8.660;2023-07-31T03:37:09;1.00;;;0.80;;
13114;SDS011;6623;52.120;8.660;2023-07-31T03:39:35;0.70;;;0.70;;
13114;SDS011;6623;52.120;8.660;2023-07-31T03:42:00;0.97;;;0.80;;
13114;SDS011;6623;52.120;8.660;2023-07-31T03:44:26;0.67;;;0.67;;
13114;SDS011;6623;52.120;8.660;2023-07-31T03:46:52;1.30;;;0.87;;
13114;SDS011;6623;52.120;8.660;2023-07-31T03:49:17;1.40;;;1.00;;
13114;SDS011;6623;52.120;8.660;2023-07-31T03:51:43;0.87;;;0.77;;
13114;SDS011;6623;52.120;8.660;2023-07-31T03:54:08;1.27;;;0.97;;
13114;SDS011;6623;52.120;8.660;2023-07-31T03:56:34;0.83;;;0.80;;
13114;SDS011;6623;52.120;8.660;2023-07-31T03:58:59;1.00;;;0.90;;
13114;SDS011;6623;52.120;8.660;2023-07-31T04:01:25;1.20;;;0.80;;
13114;SDS011;6623;52.120;8.660;2023-07-31T04:03:51;1.33;;;0.90;;
13114;SDS011;6623;52.120;8.660;2023-07-31T04:06:16;1.00;;;0.90;;
13114;SDS011;6623;52.120;8.660;2023-07-31T04:08:43;1.40;;;0.90;;
13114;SDS011;6623;52.120;8.660;2023-07-31T04:11:10;1.20;;;0.87;;
13114;SDS011;6623;52.120;8.660;2023-07-31T04:13:36;1.17;;;0.90;;
13114;SDS011;6623;52.120;8.660;2023-07-31T04:16:01;0.97;;;0.87;;
13114;SDS011;6623;52.120;8.660;2023-07-31T04:18:27;1.00;;;0.90;;
13114;SDS011;6623;52.120;8.660;2023-07-31T04:20:53;1.10;;;1.00;;
13114;SDS011;6623;52.120;8.660;2023-07-31T04:23:18;1.20;;;1.00;;
13114;SDS011;6623;52.120;8.660;2023-07-31T04:25:44;1.40;;;1.03;;
13114;SDS011;6623;52.120;8.660;2023-07-31T04:28:09;1.40;;;1.10;;
13114;SDS011;6623;52.120;8.660;2023-07-31T04:30:35;1.30;;;1.10;;
13114;SDS011;6623;52.120;8.660;2023-07-31T04:33:01;1.90;;;1.30;;
13114;SDS011;6623;52.120;8.660;2023-07-31T04:35:27;1.77;;;1.30;;
13114;SDS011;6623;52.120;8.660;2023-07-31T04:37:52;1.80;;;1.20;;
13114;SDS011;6623;52.120;8.660;2023-07-31T04:40:18;1.50;;;1.30;;
13114;SDS011;6623;52.120;8.660;2023-07-31T04:42:43;1.83;;;1.20;;
13114;SDS011;6623;52.120;8.660;2023-07-31T04:45:09;1.40;;;1.10;;
13114;SDS011;6623;52.120;8.660;2023-07-31T04:47:34;1.93;;;1.33;;
13114;SDS011;6623;52.120;8.660;2023-07-31T04:50:00;1.60;;;1.30;;
13114;SDS011;6623;52.120;8.660;2023-07-31T04:52:25;2.43;;;1.40;;
13114;SDS011;6623;52.120;8.660;2023-07-31T04:54:51;2.90;;;1.67;;
13114;SDS011;6623;52.120;8.660;2023-07-31T04:57:17;2.53;;;1.60;;
13114;SDS011;6623;52.120;8.660;2023-07-31T04:59:42;2.53;;;1.80;;
13114;SDS011;6623;52.120;8.660;2023-07-31T05:02:08;2.03;;;1.70;;
13114;SDS011;6623;52.120;8.660;2023-07-31T05:04:34;3.07;;;1.63;;
13114;SDS011;6623;52.120;8.660;2023-07-31T05:06:59;2.80;;;1.80;;
13114;SDS011;6623;52.120;8.660;2023-07-31T05:09:25;2.93;;;2.07;;
13114;SDS011;6623;52.120;8.660;2023-07-31T05:11:50;3.63;;;1.80;;
13114;SDS011;6623;52.120;8.660;2023-07-31T05:14:16;3.93;;;1.77;;
13114;SDS011;6623;52.120;8.660;2023-07-31T05:16:41;2.90;;;1.70;;
13114;SDS011;6623;52.120;8.660;2023-07-31T05:19:07;3.50;;;2.13;;
13114;SDS011;6623;52.120;8.660;2023-07-31T05:21:32;2.50;;;1.87;;
13114;SDS011;6623;52.120;8.660;2023-07-31T05:23:58;3.23;;;1.87;;
13114;SDS011;6623;52.120;8.660;2023-07-31T05:26:24;3.13;;;1.97;;
13114;SDS011;6623;52.120;8.660;2023-07-31T05:28:49;3.00;;;1.80;;
13114;SDS011;6623;52.120;8.660;2023-07-31T05:31:15;3.37;;;2.10;;
13114;SDS011;6623;52.120;8.660;2023-07-31T05:33:40;3.27;;;1.93;;
13114;SDS011;6623;52.120;8.660;2023-07-31T05:36:06;3.20;;;2.17;;
13114;SDS011;6623;52.120;8.660;2023-07-31T05:38:31;3.50;;;2.20;;
13114;SDS011;6623;52.120;8.660;2023-07-31T05:40:57;3.70;;;2.13;;
13114;SDS011;6623;52.120;8.660;2023-07-31T05:43:22;3.43;;;2.33;;
13114;SDS011;6623;52.120;8.660;2023-07-31T05:45:48;4.57;;;2.33;;
13114;SDS011;6623;52.120;8.660;2023-07-31T05:48:13;3.70;;;2.23;;
13114;SDS011;6623;52.120;8.660;2023-07-31T05:50:39;3.97;;;2.30;;
13114;SDS011;6623;52.120;8.660;2023-07-31T05:53:05;3.77;;;2.53;;
13114;SDS011;6623;52.120;8.660;2023-07-31T05:55:31;3.10;;;2.20;;
13114;SDS011;6623;52.120;8.660;2023-07-31T05:57:57;5.60;;;2.47;;
13114;SDS011;6623;52.120;8.660;2023-07-31T06:00:22;4.00;;;2.53;;
13114;SDS011;6623;52.120;8.660;2023-07-31T06:02:48;3.40;;;2.20;;
13114;SDS011;6623;52.120;8.660;2023-07-31T06:05:13;4.23;;;2.50;;
13114;SDS011;6623;52.120;8.660;2023-07-31T06:07:39;4.53;;;2.30;;
13114;SDS011;6623;52.120;8.660;2023-07-31T06:10:05;5.87;;;2.70;;
13114;SDS011;6623;52.120;8.660;2023-07-31T06:12:31;5.07;;;2.60;;
13114;SDS011;6623;52.120;8.660;2023-07-31T06:14:58;3.97;;;2.50;;
13114;SDS011;6623;52.120;8.660;2023-07-31T06:17:23;3.47;;;2.30;;
13114;SDS011;6623;52.120;8.660;2023-07-31T06:19:49;3.83;;;2.33;;
13114;SDS011;6623;52.120;8.660;2023-07-31T06:22:15;3.53;;;2.57;;
13114;SDS011;6623;52.120;8.660;2023-07-31T06:24:40;4.13;;;2.33;;
13114;SDS011;6623;52.120;8.660;2023-07-31T06:27:06;3.67;;;2.30;;
13114;SDS011;6623;52.120;8.660;2023-07-31T06:29:32;4.73;;;2.87;;
13114;SDS011;6623;52.120;8.660;2023-07-31T06:31:57;4.67;;;2.60;;
13114;SDS011;6623;52.120;8.660;2023-07-31T06:34:23;4.13;;;2.63;;
13114;SDS011;6623;52.120;8.660;2023-07-31T06:36:48;4.37;;;2.70;;
13114;SDS011;6623;52.120;8.660;2023-07-31T06:39:14;4.87;;;2.70;;
13114;SDS011;6623;52.120;8.660;2023-07-31T06:41:39;3.23;;;2.40;;
13114;SDS011;6623;52.120;8.660;2023-07-31T06:44:05;4.87;;;2.37;;
13114;SDS011;6623;52.120;8.660;2023-07-31T06:46:31;3.30;;;2.60;;
13114;SDS011;6623;52.120;8.660;2023-07-31T06:48:56;4.13;;;2.50;;
13114;SDS011;6623;52.120;8.660;2023-07-31T06:51:22;3.50;;;2.67;;
13114;SDS011;6623;52.120;8.660;2023-07-31T06:53:47;6.83;;;3.07;;
13114;SDS011;6623;52.120;8.660;2023-07-31T06:56:13;4.13;;;2.80;;
13114;SDS011;6623;52.120;8.660;2023-07-31T06:58:39;4.53;;;2.60;;
13114;SDS011;6623;52.120;8.660;2023-07-31T07:01:04;3.67;;;2.63;;
13114;SDS011;6623;52.120;8.660;2023-07-31T07:03:30;4.10;;;2.50;;
13114;SDS011;6623;52.120;8.660;2023-07-31T07:05:55;4.23;;;2.77;;
13114;SDS011;6623;52.120;8.660;2023-07-31T07:08:21;4.23;;;2.60;;
13114;SDS011;6623;52.120;8.660;2023-07-31T07:10:47;3.67;;;2.60;;
13114;SDS011;6623;52.120;8.660;2023-07-31T07:13:13;4.47;;;2.70;;
13114;SDS011;6623;52.120;8.660;2023-07-31T07:15:38;3.80;;;2.70;;
13114;SDS011;6623;52.120;8.660;2023-07-31T07:18:04;5.97;;;2.77;;
13114;SDS011;6623;52.120;8.660;2023-07-31T07:20:29;6.67;;;2.70;;
13114;SDS011;6623;52.120;8.660;2023-07-31T07:22:55;5.07;;;2.87;;
13114;SDS011;6623;52.120;8.660;2023-07-31T07:25:21;4.13;;;2.40;;
13114;SDS011;6623;52.120;8.660;2023-07-31T07:27:46;4.90;;;2.70;;
13114;SDS011;6623;52.120;8.660;2023-07-31T07:30:12;3.97;;;2.60;;
13114;SDS011;6623;52.120;8.660;2023-07-31T07:32:39;4.20;;;2.60;;
13114;SDS011;6623;52.120;8.660;2023-07-31T07:35:05;4.43;;;2.73;;
13114;SDS011;6623;52.120;8.660;2023-07-31T07:37:31;4.40;;;2.60;;
13114;SDS011;6623;52.120;8.660;2023-07-31T07:39:56;4.17;;;2.47;;
13114;SDS011;6623;52.120;8.660;2023-07-31T07:42:22;4.00;;;2.70;;
13114;SDS011;6623;52.120;8.660;2023-07-31T07:44:48;4.20;;;2.87;;
13114;SDS011;6623;52.120;8.660;2023-07-31T07:47:13;4.73;;;2.57;;
13114;SDS011;6623;52.120;8.660;2023-07-31T07:49:39;3.83;;;2.20;;
13114;SDS011;6623;52.120;8.660;2023-07-31T07:52:04;3.97;;;2.30;;
13114;SDS011;6623;52.120;8.660;2023-07-31T07:54:30;4.33;;;2.60;;
13114;SDS011;6623;52.120;8.660;2023-07-31T07:56:56;4.30;;;2.57;;
13114;SDS011;6623;52.120;8.660;2023-07-31T07:59:21;3.63;;;2.40;;
13114;SDS011;6623;52.120;8.660;2023-07-31T08:01:47;4.33;;;2.40;;
13114;SDS011;6623;52.120;8.660;2023-07-31T08:04:12;4.53;;;2.70;;
13114;SDS011;6623;52.120;8.660;2023-07-31T08:06:38;3.60;;;2.63;;
13114;SDS011;6623;52.120;8.660;2023-07-31T08:09:03;4.07;;;2.50;;
13114;SDS011;6623;52.120;8.660;2023-07-31T08:11:31;3.33;;;2.37;;
13114;SDS011;6623;52.120;8.660;2023-07-31T08:13:57;3.33;;;2.47;;
13114;SDS011;6623;52.120;8.660;2023-07-31T08:16:23;5.80;;;2.63;;
13114;SDS011;6623;52.120;8.660;2023-07-31T08:18:48;4.10;;;2.70;;
13114;SDS011;6623;52.120;8.660;2023-07-31T08:21:14;3.80;;;2.40;;
13114;SDS011;6623;52.120;8.660;2023-07-31T08:23:40;4.47;;;2.50;;
13114;SDS011;6623;52.120;8.660;2023-07-31T08:26:05;3.90;;;2.30;;
13114;SDS011;6623;52.120;8.660;2023-07-31T08:28:31;4.20;;;2.80;;
13114;SDS011;6623;52.120;8.660;2023-07-31T08:30:56;4.70;;;2.40;;
13114;SDS011;6623;52.120;8.660;2023-07-31T08:33:22;3.37;;;2.50;;
13114;SDS011;6623;52.120;8.660;2023-07-31T08:35:48;3.50;;;2.03;;
13114;SDS011;6623;52.120;8.660;2023-07-31T08:38:13;2.63;;;2.20;;
13114;SDS011;6623;52.120;8.660;2023-07-31T08:40:39;3.33;;;2.33;;
13114;SDS011;6623;52.120;8.660;2023-07-31T08:43:05;3.70;;;2.30;;
13114;SDS011;6623;52.120;8.660;2023-07-31T08:45:31;3.53;;;2.33;;
13114;SDS011;6623;52.120;8.660;2023-07-31T08:47:57;2.87;;;2.13;;
13114;SDS011;6623;52.120;8.660;2023-07-31T08:50:23;3.37;;;2.50;;
13114;SDS011;6623;52.120;8.660;2023-07-31T08:52:50;3.83;;;2.60;;
13114;SDS011;6623;52.120;8.660;2023-07-31T08:55:16;2.57;;;1.97;;
13114;SDS011;6623;52.120;8.660;2023-07-31T08:57:42;2.93;;;2.23;;
13114;SDS011;6623;52.120;8.660;2023-07-31T09:00:09;4.00;;;2.60;;
13114;SDS011;6623;52.120;8.660;2023-07-31T09:02:45;3.47;;;2.43;;
13114;SDS011;6623;52.120;8.660;2023-07-31T09:05:20;2.37;;;1.90;;
13114;SDS011;6623;52.120;8.660;2023-07-31T09:07:47;3.00;;;2.27;;
13114;SDS011;6623;52.120;8.660;2023-07-31T09:10:14;3.20;;;2.30;;
13114;SDS011;6623;52.120;8.660;2023-07-31T09:12:40;3.33;;;2.37;;
13114;SDS011;6623;52.120;8.660;2023-07-31T09:15:06;4.33;;;2.10;;
13114;SDS011;6623;52.120;8.660;2023-07-31T09:17:35;3.63;;;2.40;;
13114;SDS011;6623;52.120;8.660;2023-07-31T09:20:17;3.13;;;2.20;;
13114;SDS011;6623;52.120;8.660;2023-07-31T09:22:44;2.93;;;2.07;;
13114;SDS011;6623;52.120;8.660;2023-07-31T09:25:15;2.93;;;2.20;;
13114;SDS011;6623;52.120;8.660;2023-07-31T09:30:13;2.73;;;2.30;;
13114;SDS011;6623;52.120;8.660;2023-07-31T09:32:40;4.03;;;2.10;;
13114;SDS011;6623;52.120;8.660;2023-07-31T09:35:22;4.47;;;2.10;;
13114;SDS011;6623;52.120;8.660;2023-07-31T09:37:53;2.90;;;1.93;;
13114;SDS011;6623;52.120;8.660;2023-07-31T09:40:42;3.13;;;2.03;;
13114;SDS011;6623;52.120;8.660;2023-07-31T09:43:10;2.20;;;1.93;;
13114;SDS011;6623;52.120;8.660;2023-07-31T09:45:46;2.73;;;2.03;;
13114;SDS011;6623;52.120;8.660;2023-07-31T09:48:13;3.13;;;2.37;;
13114;SDS011;6623;52.120;8.660;2023-07-31T09:50:43;2.47;;;1.80;;
13114;SDS011;6623;52.120;8.660;2023-07-31T09:53:10;3.23;;;1.97;;
13114;SDS011;6623;52.120;8.660;2023-07-31T09:55:36;2.67;;;2.10;;
13114;SDS011;6623;52.120;8.660;2023-07-31T09:58:04;2.37;;;2.00;;
13114;SDS011;6623;52.120;8.660;2023-07-31T10:00:30;2.70;;;1.87;;
13114;SDS011;6623;52.120;8.660;2023-07-31T10:02:58;2.23;;;1.77;;
13114;SDS011;6623;52.120;8.660;2023-07-31T10:05:31;4.80;;;2.30;;
13114;SDS011;6623;52.120;8.660;2023-07-31T10:08:00;3.43;;;2.00;;
13114;SDS011;6623;52.120;8.660;2023-07-31T10:10:25;3.47;;;1.80;;
13114;SDS011;6623;52.120;8.660;2023-07-31T10:12:52;2.03;;;1.70;;
13114;SDS011;6623;52.120;8.660;2023-07-31T10:15:19;2.47;;;1.80;;
13114;SDS011;6623;52.120;8.660;2023-07-31T10:17:47;3.17;;;1.80;;
13114;SDS011;6623;52.120;8.660;2023-07-31T10:20:13;2.10;;;1.60;;
13114;SDS011;6623;52.120;8.660;2023-07-31T10:22:41;2.80;;;1.80;;
13114;SDS011;6623;52.120;8.660;2023-07-31T10:25:08;2.30;;;1.83;;
13114;SDS011;6623;52.120;8.660;2023-07-31T10:27:38;2.17;;;1.80;;
13114;SDS011;6623;52.120;8.660;2023-07-31T10:30:05;2.67;;;1.83;;
13114;SDS011;6623;52.120;8.660;2023-07-31T10:32:33;2.00;;;1.80;;
13114;SDS011;6623;52.120;8.660;2023-07-31T10:35:00;3.37;;;2.00;;
13114;SDS011;6623;52.120;8.660;2023-07-31T10:37:29;2.90;;;1.90;;
13114;SDS011;6623;52.120;8.660;2023-07-31T10:40:02;3.20;;;1.80;;
13114;SDS011;6623;52.120;8.660;2023-07-31T10:42:30;2.80;;;1.73;;
13114;SDS011;6623;52.120;8.660;2023-07-31T10:45:04;2.00;;;1.70;;
13114;SDS011;6623;52.120;8.660;2023-07-31T10:47:31;2.50;;;1.70;;
13114;SDS011;6623;52.120;8.660;2023-07-31T10:50:13;2.77;;;1.70;;
13114;SDS011;6623;52.120;8.660;2023-07-31T10:52:48;2.43;;;1.60;;
13114;SDS011;6623;52.120;8.660;2023-07-31T10:57:49;2.50;;;1.60;;
13114;SDS011;6623;52.120;8.660;2023-07-31T11:00:19;2.77;;;1.60;;
13114;SDS011;6623;52.120;8.660;2023-07-31T11:03:06;1.67;;;1.43;;
13114;SDS011;6623;52.120;8.660;2023-07-31T11:08:31;1.73;;;1.50;;
13114;SDS011;6623;52.120;8.660;2023-07-31T11:13:31;2.40;;;1.70;;
13114;SDS011;6623;52.120;8.660;2023-07-31T11:15:58;4.07;;;1.60;;
13114;SDS011;6623;52.120;8.660;2023-07-31T11:18:26;1.80;;;1.53;;
13114;SDS011;6623;52.120;8.660;2023-07-31T11:20:52;1.80;;;1.70;;
13114;SDS011;6623;52.120;8.660;2023-07-31T11:23:18;1.73;;;1.53;;
13114;SDS011;6623;52.120;8.660;2023-07-31T11:25:45;2.00;;;1.40;;
13114;SDS011;6623;52.120;8.660;2023-07-31T11:28:11;1.57;;;1.40;;
13114;SDS011;6623;52.120;8.660;2023-07-31T11:30:38;3.07;;;1.40;;
13114;SDS011;6623;52.120;8.660;2023-07-31T11:33:05;2.00;;;1.57;;
13114;SDS011;6623;52.120;8.660;2023-07-31T11:35:32;2.63;;;1.60;;
13114;SDS011;6623;52.120;8.660;2023-07-31T11:37:58;2.37;;;1.40;;
13114;SDS011;6623;52.120;8.660;2023-07-31T11:40:24;1.80;;;1.60;;
13114;SDS011;6623;52.120;8.660;2023-07-31T11:42:57;1.50;;;1.40;;
13114;SDS011;6623;52.120;8.660;2023-07-31T11:45:27;1.43;;;1.20;;
13114;SDS011;6623;52.120;8.660;2023-07-31T11:47:56;1.40;;;1.30;;
13114;SDS011;6623;52.120;8.660;2023-07-31T11:50:22;1.60;;;1.40;;
13114;SDS011;6623;52.120;8.660;2023-07-31T11:53:01;2.47;;;1.23;;
13114;SDS011;6623;52.120;8.660;2023-07-31T11:55:32;2.30;;;1.30;;
13114;SDS011;6623;52.120;8.660;2023-07-31T11:57:58;1.87;;;1.23;;
13114;SDS011;6623;52.120;8.660;2023-07-31T12:00:25;1.40;;;1.13;;
13114;SDS011;6623;52.120;8.660;2023-07-31T12:02:52;1.23;;;1.13;;
13114;SDS011;6623;52.120;8.660;2023-07-31T12:05:18;1.80;;;1.10;;
13114;SDS011;6623;52.120;8.660;2023-07-31T12:10:29;1.53;;;1.10;;
13114;SDS011;6623;52.120;8.660;2023-07-31T12:12:57;1.40;;;1.10;;
13114;SDS011;6623;52.120;8.660;2023-07-31T12:15:37;1.50;;;1.20;;
13114;SDS011;6623;52.120;8.660;2023-07-31T12:18:05;1.40;;;1.13;;
13114;SDS011;6623;52.120;8.660;2023-07-31T12:20:31;1.70;;;1.20;;
13114;SDS011;6623;52.120;8.660;2023-07-31T12:22:57;1.63;;;1.17;;
13114;SDS011;6623;52.120;8.660;2023-07-31T12:25:28;1.20;;;1.10;;
13114;SDS011;6623;52.120;8.660;2023-07-31T12:27:57;1.40;;;1.30;;
13114;SDS011;6623;52.120;8.660;2023-07-31T12:30:29;1.43;;;1.27;;
13114;SDS011;6623;52.120;8.660;2023-07-31T12:32:57;2.30;;;1.13;;
13114;SDS011;6623;52.120;8.660;2023-07-31T12:35:22;2.93;;;1.03;;
13114;SDS011;6623;52.120;8.660;2023-07-31T12:37:48;1.33;;;1.20;;
13114;SDS011;6623;52.120;8.660;2023-07-31T12:40:13;1.50;;;1.20;;
13114;SDS011;6623;52.120;8.660;2023-07-31T12:42:40;2.40;;;1.23;;
13114;SDS011;6623;52.120;8.660;2023-07-31T12:45:06;1.47;;;1.10;;
13114;SDS011;6623;52.120;8.660;2023-07-31T12:47:32;1.87;;;1.27;;
13114;SDS011;6623;52.120;8.660;2023-07-31T12:49:58;1.50;;;1.27;;
13114;SDS011;6623;52.120;8.660;2023-07-31T12:52:23;1.47;;;1.17;;
13114;SDS011;6623;52.120;8.660;2023-07-31T12:54:49;2.57;;;1.20;;
13114;SDS011;6623;52.120;8.660;2023-07-31T12:57:14;2.93;;;1.20;;
13114;SDS011;6623;52.120;8.660;2023-07-31T12:59:40;1.50;;;1.00;;
13114;SDS011;6623;52.120;8.660;2023-07-31T13:02:05;3.40;;;1.10;;
13114;SDS011;6623;52.120;8.660;2023-07-31T13:04:31;2.23;;;1.03;;
13114;SDS011;6623;52.120;8.660;2023-07-31T13:06:56;3.00;;;1.23;;
13114;SDS011;6623;52.120;8.660;2023-07-31T13:09:23;6.67;;;1.20;;
13114;SDS011;6623;52.120;8.660;2023-07-31T13:11:48;4.13;;;1.10;;
13114;SDS011;6623;52.120;8.660;2023-07-31T13:14:14;2.43;;;1.23;;
13114;SDS011;6623;52.120;8.660;2023-07-31T13:16:39;2.20;;;1.27;;
13114;SDS011;6623;52.120;8.660;2023-07-31T13:19:05;1.37;;;1.07;;
13114;SDS011;6623;52.120;8.660;2023-07-31T13:21:30;1.77;;;1.10;;
13114;SDS011;6623;52.120;8.660;2023-07-31T13:23:56;3.03;;;1.30;;
13114;SDS011;6623;52.120;8.660;2023-07-31T13:26:23;1.10;;;1.00;;
13114;SDS011;6623;52.120;8.660;2023-07-31T13:28:48;2.27;;;1.03;;
13114;SDS011;6623;52.120;8.660;2023-07-31T13:31:14;2.20;;;1.20;;
13114;SDS011;6623;52.120;8.660;2023-07-31T13:33:39;2.23;;;1.10;;
13114;SDS011;6623;52.120;8.660;2023-07-31T13:36:05;1.83;;;1.10;;
13114;SDS011;6623;52.120;8.660;2023-07-31T13:38:30;2.37;;;1.00;;
13114;SDS011;6623;52.120;8.660;2023-07-31T13:40:56;1.47;;;1.00;;
13114;SDS011;6623;52.120;8.660;2023-07-31T13:43:21;1.70;;;1.20;;
13114;SDS011;6623;52.120;8.660;2023-07-31T13:45:47;1.87;;;1.40;;
13114;SDS011;6623;52.120;8.660;2023-07-31T13:48:12;2.20;;;1.10;;
13114;SDS011;6623;52.120;8.660;2023-07-31T13:50:38;1.93;;;1.20;;
13114;SDS011;6623;52.120;8.660;2023-07-31T13:53:03;2.27;;;1.40;;
13114;SDS011;6623;52.120;8.660;2023-07-31T13:55:29;1.37;;;1.00;;
13114;SDS011;6623;52.120;8.660;2023-07-31T13:57:55;1.30;;;1.20;;
13114;SDS011;6623;52.120;8.660;2023-07-31T14:00:20;1.20;;;1.10;;
13114;SDS011;6623;52.120;8.660;2023-07-31T14:02:46;2.77;;;1.20;;
13114;SDS011;6623;52.120;8.660;2023-07-31T14:05:11;1.30;;;1.20;;
13114;SDS011;6623;52.120;8.660;2023-07-31T14:07:37;1.43;;;1.30;;
13114;SDS011;6623;52.120;8.660;2023-07-31T14:10:02;1.83;;;1.10;;
13114;SDS011;6623;52.120;8.660;2023-07-31T14:12:29;1.97;;;1.20;;
13114;SDS011;6623;52.120;8.660;2023-07-31T14:14:55;1.50;;;1.23;;
13114;SDS011;6623;52.120;8.660;2023-07-31T14:17:21;1.50;;;1.20;;
13114;SDS011;6623;52.120;8.660;2023-07-31T14:19:46;1.40;;;1.20;;
13114;SDS011;6623;52.120;8.660;2023-07-31T14:22:12;2.23;;;1.40;;
13114;SDS011;6623;52.120;8.660;2023-07-31T14:24:37;1.93;;;1.40;;
13114;SDS011;6623;52.120;8.660;2023-07-31T14:27:03;2.07;;;1.30;;
13114;SDS011;6623;52.120;8.660;2023-07-31T14:29:29;1.80;;;1.40;;
13114;SDS011;6623;52.120;8.660;2023-07-31T14:31:55;1.53;;;1.37;;
13114;SDS011;6623;52.120;8.660;2023-07-31T14:34:20;3.73;;;1.40;;
13114;SDS011;6623;52.120;8.660;2023-07-31T14:36:46;1.83;;;1.43;;
13114;SDS011;6623;52.120;8.660;2023-07-31T14:39:12;1.80;;;1.40;;
13114;SDS011;6623;52.120;8.660;2023-07-31T14:41:37;1.77;;;1.33;;
13114;SDS011;6623;52.120;8.660;2023-07-31T14:44:03;1.73;;;1.40;;
13114;SDS011;6623;52.120;8.660;2023-07-31T14:46:28;2.20;;;1.60;;
13114;SDS011;6623;52.120;8.660;2023-07-31T14:48:54;1.70;;;1.60;;
13114;SDS011;6623;52.120;8.660;2023-07-31T14:51:19;2.00;;;1.53;;
13114;SDS011;6623;52.120;8.660;2023-07-31T14:53:46;2.80;;;1.30;;
13114;SDS011;6623;52.120;8.660;2023-07-31T14:56:12;2.00;;;1.43;;
13114;SDS011;6623;52.120;8.660;2023-07-31T14:58:37;2.00;;;1.70;;
13114;SDS011;6623;52.120;8.660;2023-07-31T15:01:03;2.07;;;1.30;;
13114;SDS011;6623;52.120;8.660;2023-07-31T15:03:28;1.37;;;1.13;;
13114;SDS011;6623;52.120;8.660;2023-07-31T15:05:54;1.50;;;1.40;;
13114;SDS011;6623;52.120;8.660;2023-07-31T15:08:20;1.60;;;1.50;;
13114;SDS011;6623;52.120;8.660;2023-07-31T15:10:45;1.57;;;1.40;;
13114;SDS011;6623;52.120;8.660;2023-07-31T15:13:11;1.43;;;1.33;;
13114;SDS011;6623;52.120;8.660;2023-07-31T15:15:36;2.43;;;1.60;;
13114;SDS011;6623;52.120;8.660;2023-07-31T15:18:02;2.03;;;1.50;;
13114;SDS011;6623;52.120;8.660;2023-07-31T15:20:28;3.13;;;1.53;;